Marshall Army Air Field
KFRI : now visible

Airfield :











YOU CAN JOIN US ON...

 
LOGIN :

Register | Disclaimer

   EN    FR    IT 

 









Legend :    VFR   Marginal VFR   IFR   Intensive IFR   Very Intensive IFR
Visi :
Ceiling :
>= 8 km
>= 3000ft
5 to 8 km
1000 to 3000 ft
1500m to 5 km
500 to 1000 ft
800 to 1500m
200 to 500 ft
< 800m
< 200 ft
Symbols :   Thunderstorms  Fog  Heavy snow  Heavy precipitations  Wind > 20 kt






- Airport Elevation : 1065 ft


KFRI - Marshall Army Air Field

CURRENT METAR :
  • 141656Z AUTO 35009KT 10SM CLR 07/M03 A3038 RMK AO2 SLP295 T00661034

EXPIRED METARs :
  • 141556Z AUTO 02005KT 10SM CLR 05/M03 A3038 RMK AO2 SLP294 T00521026

TAF TAF KFRI
Valid from the 14 at 13:00 until the 15 at 19:00 UTC


141300Z 1413/1519 36006KT 9999 FEW020 BKN030 650303 510203 QNH3025INS
TEMPO 1413/1415 8000 BR BKN015 650154
BECMG 1415/1416 32010G15KT 9999 SCT030 QNH3034INS
BECMG 1418/1419 32009KT 9999 SKC QNH3033INS
BECMG 1503/1504 21006KT 9999 SKC QNH3026INS TX09/1421Z TNM01/1512Z



MET'MAP, your aeronautical weather chart ! - Copyright ORBIFLY December 2007 - Disclaimer

ORBIFLY MET'MAP TEAM :

Programming & Development : Alexandra Zaïnal
Concept & Development : Baudouin d'Aumeries
Co-Development & Prog : Marc-Olivier Méhu
Technical & hardware support : Manuel Goepfert

Contact : metmap@orbifly.com




SOURCES & CREDITS :

   NOAA       Earth
Advisory